KSAR/SAR METAR and TAF weather

Enter ICAO airport designator
Station Type Date Time Source
KSAR METAR 2019/11/18 09:15 UTC NOAA

KSAR 180915Z AUTO 27003KT 10SM OVC033 06/04 A2989 RMK AO2 T00570040


Station Type Date Time Source
KSAR Decoded METAR 2019/11/18 09:15 UTC NOAA

Sparta, Sparta Community-Hunter Field Airport, IL, United States (KSAR) 38-08-56N 089-41-55W
Nov 18, 2019 - 04:15 AM EST / 2019.11.18 0915 UTC
Wind: from the W (270 degrees) at 3 MPH (3 KT):0
Visibility: 10 mile(s):0
Sky conditions: overcast
Temperature: 42.3 F (5.7 C)
Dew Point: 39.2 F (4.0 C)
Relative Humidity: 88%
Pressure (altimeter): 29.89 in. Hg (1012 hPa)
ob: KSAR 180915Z AUTO 27003KT 10SM OVC033 06/04 A2989 RMK AO2 T00570040
cycle: 9

Station Type Date Time Source
KSAR TAF UTC NOAA

Error!

Example: see airport list